Metar Cercanos

 

LEPA - Palma De Mallorc, Spain
Distance from station: ONO 38km
Actualización: 30/05/2017 09:00
Cubierto
Cubierto
 Viento del NNE
Viento: NNE 13 km/h
Temperatura: 21°C
Rocío: 16°C
Humedad: 73%
Barómetro: 1015 hPa
Clouds: Cubierto
Visibility: 10 km
Cloud details: Few Clouds 427 m
Cubierto 1067 m
2017/05/30 07:00 LEPA 300700Z 03007KT 350V110 9999 FEW014 OVC035 21/16 Q1015 NOSIG
LEMH - Mahon/Menorca Is, Spain
Distance from station: ENE 105km
Actualización: 30/05/2017 09:00
Few Clouds
Few Clouds
 Viento del E
Viento: E 19 km/h
Temperatura: 22°C
Rocío: 17°C
Humedad: 73%
Barómetro: 1015 hPa
Clouds: Few Clouds
Visibility: 10 km
Cloud details: Few Clouds 610 m
2017/05/30 07:00 LEMH 300700Z 10010KT 080V140 9999 FEW020 22/17 Q1015
 
LEIB - Ibiza/Es Codola, Spain
Distance from station: OSO 165km
Actualización: 30/05/2017 09:00
Few Clouds
Few Clouds
 Viento del N
Viento: N 7 km/h, Racha: 28 km/h
Temperatura: 21°C
Rocío: 17°C
Humedad: 78%
Barómetro: 1015 hPa
Clouds: Few Clouds
Visibility: 10 km
Cloud details: Few Clouds 1372 m
2017/05/30 07:00 LEIB 300700Z 36004G15KT 320V030 9999 FEW045 21/17 Q1015 NOSIG
LEBL - Barcelona Airpor, Spain
Distance from station: NNO 225km
Actualización: 30/05/2017 09:00
Lluvia débil, Few clouds
Lluvia débil, Few clouds
 Viento del NE
Viento: NE 17 km/h
Temperatura: 19°C
Rocío: 15°C
Humedad: 78%
Barómetro: 1016 hPa
Resumen: Lluvia débil
Clouds: Few Clouds
Visibility: 10 km
Cloud details: Few Clouds 305 m
2017/05/30 07:00 LEBL 300700Z 04009KT 9999 -RA FEW010 19/15 Q1016 NOSIG
 
LEVC - Valencia (civ/Mi, Spain
Distance from station: NO 188km
Actualización: 30/05/2017 09:00
Few Clouds
Few Clouds
 Viento del varies
Viento: varies 4 km/h
Temperatura: 21°C
Rocío: 14°C
Humedad: 64%
Barómetro: 1016 hPa
Clouds: Few Clouds
Visibility: 10 km
Cloud details: Few Clouds 762 m
2017/05/30 07:00 LEVC 300700Z VRB02KT 9999 FEW025 21/14 Q1016 NOSIG
LEGE - Gerona/Costa Bra, Spain
Distance from station: N 276km
Actualización: 30/05/2017 09:00
Few Clouds
Few Clouds
 Viento del calm
Viento: Calma
Temperatura: 18°C
Rocío: 12°C
Humedad: 68%
Barómetro: 1017 hPa
Clouds: Few Clouds
Visibility: 10 km
Cloud details: Few Clouds 2438 m
2017/05/30 07:00 LEGE 300700Z 00000KT 9999 FEW080 18/12 Q1017
 
LEAL - Alicante/El Alte, Spain
Distance from station: OSO 344km
Actualización: 30/05/2017 09:00
Few Clouds
Few Clouds
 Viento del OSO
Viento: OSO 6 km/h
Temperatura: 22°C
Rocío: 15°C
Humedad: 65%
Barómetro: 1015 hPa
Clouds: Few Clouds
Visibility: 10 km
Cloud details: Few Clouds 1067 m
2017/05/30 07:00 LEAL 300700Z 24003KT 190V300 9999 FEW035 22/15 Q1015 NOSIG
LEAM - Almeria Airport, Spain
Distance from station: SSO 56km
Actualización: 30/05/2017 09:00
Despejado
Despejado
 Viento del varies
Viento: varies 4 km/h
Temperatura: 23°C
Rocío: 14°C
Humedad: 57%
Barómetro: 1014 hPa
Resumen: Despejado
Visibility: greater than 10 km
2017/05/30 07:00 LEAM 300700Z VRB02KT CAVOK 23/14 Q1014
 
LEZG - Zaragoza (mil/Ci, Spain
Distance from station: NO 431km
Actualización: 30/05/2017 09:00
Few Clouds
Few Clouds
 Viento del ONO
Viento: ONO 17 km/h
Temperatura: 19°C
Rocío: 15°C
Humedad: 78%
Barómetro: 1017 hPa
Clouds: Few Clouds
Visibility: 10 km
Cloud details: Few Clouds 1219 m
2017/05/30 07:00 LEZG 300700Z 30009KT 9999 FEW040 19/15 Q1017
LEMD - Madrid/Barajas, Spain
Distance from station: ONO 234km
Actualización: 30/05/2017 09:00
Despejado
Despejado
 Viento del NNE
Viento: NNE 6 km/h
Temperatura: 19°C
Rocío: 11°C
Humedad: 60%
Barómetro: 1016 hPa
Resumen: Despejado
Visibility: greater than 10 km
2017/05/30 07:00 LEMD 300700Z 02003KT 320V100 CAVOK 19/11 Q1016 NOSIG
 
LEGR - Granada Airport, Spain
Distance from station: OSO 62km
Actualización: 30/05/2017 09:00
Muy nuboso
Muy nuboso
 Viento del calm
Viento: Calma
Temperatura: 17°C
Rocío: 12°C
Humedad: 73%
Barómetro: 1017 hPa
Clouds: Muy nuboso
Visibility: 10 km
Cloud details: Muy nuboso 1981 m
2017/05/30 07:00 LEGR 300700Z 00000KT 9999 BKN065 17/12 Q1017
LEMG - Malaga (civ/Mil), Spain
Distance from station: OSO 227km
Actualización: 30/05/2017 09:00
Few Clouds
Few Clouds
 Viento del O
Viento: O 22 km/h
Temperatura: 23°C
Rocío: 12°C
Humedad: 50%
Barómetro: 1014 hPa
Clouds: Few Clouds
Visibility: 10 km
Cloud details: Few Clouds 1829 m
2017/05/30 07:00 LEMG 300700Z 28012KT 240V300 9999 FEW060 23/12 Q1014 NOSIG
 
LEZL - Sevilla (civ/Mil, Spain
Distance from station: S 318km
Actualización: 30/05/2017 09:00
Parcialmente nuboso
Parcialmente nuboso
 Viento del SSO
Viento: SSO 2 km/h
Temperatura: 18°C
Rocío: 17°C
Humedad: 94%
Barómetro: 1016 hPa
Clouds: Parcialmente nuboso
Visibility: 10 km
Cloud details: Parcialmente nuboso 213 m
2017/05/30 07:00 LEZL 300700Z 21001KT 9999 SCT007 18/17 Q1016 NOSIG
LEVT - Vitoria, Spain
Distance from station: NO 226km
Actualización: 30/05/2017 09:00
Cubierto
Cubierto
 Viento del varies
Viento: varies 4 km/h
Temperatura: 15°C
Rocío: 13°C
Humedad: 88%
Barómetro: 1019 hPa
Clouds: Cubierto
Visibility: 10 km
Cloud details: Parcialmente nuboso 244 m
Cubierto 610 m
2017/05/30 07:00 LEVT 300700Z VRB02KT 9999 SCT008 OVC020 15/13 Q1019
 
LEBB - Bilbao/Sondica, Spain
Distance from station: NNO 235km
Actualización: 30/05/2017 09:00
Mist, Muy nuboso
Mist, Muy nuboso
 Viento del varies
Viento: varies 2 km/h
Temperatura: 16°C
Rocío: 16°C
Humedad: 100%
Barómetro: 1019 hPa
Resumen: Mist
Clouds: Muy nuboso
Visibility: 5 km
Cloud details: Parcialmente nuboso 152 m
Muy nuboso 274 m
Muy nuboso 732 m
2017/05/30 07:00 LEBB 300700Z VRB01KT 5000 BR SCT005 BKN009 BKN024 16/16 Q1019 NOSIG
LESO - San Sebastian/Fu, Spain
Distance from station: N 231km
Actualización: 30/05/2017 09:00
Light drizzle, Cubierto
Light drizzle, Cubierto
 Viento del varies
Viento: varies 2 km/h
Temperatura: 17°C
Rocío: 17°C
Humedad: 100%
Barómetro: 1019 hPa
Resumen: Light Drizzle
Clouds: Cubierto
Visibility: 4 km
Cloud details: Muy nuboso 152 m
Cubierto 366 m
2017/05/30 07:00 LESO 300700Z VRB01KT 4000 -DZ BKN005 OVC012 17/17 Q1019
 
LEVD - Valladolid(Mil/C, Spain
Distance from station: ONO 239km
Actualización: 30/05/2017 09:00
Muy nuboso
Muy nuboso
 Viento del ENE
Viento: ENE 15 km/h
Temperatura: 13°C
Rocío: 12°C
Humedad: 94%
Barómetro: 1018 hPa
Clouds: Muy nuboso
Visibility: 10 km
Cloud details: Muy nuboso 91 m
2017/05/30 07:00 LEVD 300700Z 06008KT 030V090 9999 BKN003 13/12 Q1018
LESA - Salamanca (civ/M, Spain
Distance from station: ONO 349km
Actualización: 30/05/2017 09:00
Mist, Muy nuboso
Mist, Muy nuboso
 Viento del NO
Viento: NO 6 km/h
Temperatura: 12°C
Rocío: 11°C
Humedad: 94%
Barómetro: 1018 hPa
Resumen: Mist
Clouds: Muy nuboso
Visibility: 3 km
Cloud details: Muy nuboso 91 m
2017/05/30 07:00 LESA 300700Z 32003KT 280V340 3000 BR BKN003 12/11 Q1018
 
LEXJ - Santander/Paraya, Spain
Distance from station: NNO 247km
Actualización: 30/05/2017 09:00
Lluvia débil, Muy nuboso
Lluvia débil, Muy nuboso
 Viento del calm
Viento: Calma
Temperatura: 16°C
Rocío: 16°C
Humedad: 100%
Barómetro: 1019 hPa
Resumen: Lluvia débil
Clouds: Muy nuboso
Visibility: 10 km
Cloud details: Parcialmente nuboso 213 m
Muy nuboso 366 m
2017/05/30 07:00 LEXJ 300700Z 00000KT 9999 -RA SCT007 BKN012 16/16 Q1019
LEAS - Asturias/Aviles, Spain
Distance from station: NO 214km
Actualización: 30/05/2017 09:00
Mist, Cubierto
Mist, Cubierto
 Viento del varies
Viento: varies 2 km/h
Temperatura: 16°C
Rocío: 15°C
Humedad: 94%
Barómetro: 1019 hPa
Resumen: Mist
Clouds: Cubierto
Visibility: 5 km
Cloud details: Few Clouds 152 m
Parcialmente nuboso 213 m
Cubierto 1219 m
2017/05/30 07:00 LEAS 300700Z VRB01KT 5000 BR FEW005 SCT007 OVC040 16/15 Q1019 TEMPO 3000 BR BKN005
 
LECO - La Coruna/Alvedr, Spain
Distance from station: ONO 222km
Actualización: 30/05/2017 09:00
Parcialmente nuboso
Parcialmente nuboso
 Viento del calm
Viento: Calma
Temperatura: 17°C
Rocío: 14°C
Humedad: 83%
Barómetro: 1019 hPa
Clouds: Parcialmente nuboso
Visibility: 10 km
Cloud details: Parcialmente nuboso 305 m
2017/05/30 07:00 LECO 300700Z 00000KT 9999 SCT010 17/14 Q1019 NOSIG
LEVX - Vigo/Peinador, Spain
Distance from station: O 214km
Actualización: 30/05/2017 09:00
Despejado
Despejado
 Viento del varies
Viento: varies 4 km/h
Temperatura: 16°C
Rocío: 14°C
Humedad: 88%
Barómetro: 1019 hPa
Resumen: Despejado
Visibility: greater than 10 km
2017/05/30 07:00 LEVX 300700Z VRB02KT CAVOK 16/14 Q1019 NOSIG